Terminal Aerodrome Forecast
Issued by NWS

Home | Current Version | Previous Version | Text Only | Print | Product List | Glossary On
Versions: 1 2 3 4 5 6 7 8 9 10 11 12 13 14 15 16 17 18 19 20 21 22 23 24 25 26 27 28 29 30 31 32 33 34 35 36 37 38 39 40 41 42 43 44 45 46 47
000
FTUS43 KDTX 271721
TAFPTK
TAF
KPTK 271721Z 2718/2818 31006KT P6SM OVC025
     FM271900 VRB04KT P6SM BKN035
     FM272200 00000KT P6SM SCT045
     FM280100 17003KT P6SM SKC
     FM281100 VRB03KT 4SM BR SKC
     FM281400 20005KT P6SM SCT045=

USA.gov is the U.S. government's official web portal to all federal, state and local government web resources and services.